createdAt,value
2019-02-04T00:00:02.009Z,3.90
2019-02-04T00:02:09.842Z,3.80
2019-02-04T00:04:16.049Z,4.10
2019-02-04T00:06:22.091Z,3.97
2019-02-04T00:08:29.691Z,3.97
2019-02-04T00:10:35.859Z,4.40
2019-02-04T00:12:42.020Z,4.60
2019-02-04T00:14:48.087Z,4.33
2019-02-04T00:16:54.638Z,4.57
2019-02-04T00:19:00.881Z,4.33
2019-02-04T00:21:06.948Z,4.40
2019-02-04T00:23:13.006Z,4.80
2019-02-04T00:25:21.577Z,4.60
2019-02-04T00:27:26.760Z,3.13
2019-02-04T00:29:32.722Z,4.23
2019-02-04T00:31:38.790Z,3.47
2019-02-04T00:33:44.917Z,4.53
2019-02-04T00:35:50.871Z,4.10
2019-02-04T00:37:57.140Z,3.27
2019-02-04T00:40:03.490Z,4.23
2019-02-04T00:42:09.580Z,3.70
2019-02-04T00:44:15.622Z,3.70
2019-02-04T00:46:21.777Z,4.03
2019-02-04T00:48:29.476Z,4.10
2019-02-04T00:50:35.516Z,4.10
2019-02-04T00:52:42.006Z,3.90
2019-02-04T00:54:48.047Z,3.43
2019-02-04T00:56:54.076Z,3.70
2019-02-04T00:59:00.375Z,3.83
2019-02-04T01:01:06.308Z,4.07
2019-02-04T01:03:13.986Z,4.00
2019-02-04T01:05:21.114Z,3.80
2019-02-04T01:07:27.111Z,4.40
2019-02-04T01:09:33.298Z,4.13
2019-02-04T01:11:39.451Z,4.03
2019-02-04T01:13:45.376Z,3.80
2019-02-04T01:15:52.376Z,4.50
2019-02-04T01:17:58.523Z,4.10
2019-02-04T01:20:10.949Z,4.40
2019-02-04T01:22:17.476Z,3.40
2019-02-04T01:24:23.478Z,3.90
2019-02-04T01:26:29.516Z,4.77
2019-02-04T01:28:35.598Z,3.77
2019-02-04T01:30:41.735Z,4.23
2019-02-04T01:32:47.976Z,3.93
2019-02-04T01:34:54.042Z,4.17
2019-02-04T01:37:00.107Z,3.80
2019-02-04T01:39:09.523Z,4.50
2019-02-04T01:41:15.920Z,3.17
2019-02-04T01:43:22.054Z,3.80
2019-02-04T01:45:28.114Z,4.13
2019-02-04T01:47:34.165Z,3.10
2019-02-04T01:49:40.106Z,2.80
2019-02-04T01:51:46.169Z,3.87
2019-02-04T01:53:52.229Z,3.77
2019-02-04T01:55:58.269Z,3.77
2019-02-04T01:58:04.239Z,3.97
2019-02-04T02:00:18.788Z,3.90
2019-02-04T02:02:24.849Z,3.40
2019-02-04T02:04:30.799Z,3.83
2019-02-04T02:06:36.840Z,3.43
2019-02-04T02:08:42.896Z,3.87
2019-02-04T02:10:48.852Z,4.30
2019-02-04T02:12:55.216Z,4.00
2019-02-04T02:15:01.268Z,3.07
2019-02-04T02:17:07.540Z,2.90
2019-02-04T02:19:13.608Z,4.53
2019-02-04T02:21:19.858Z,3.57
2019-02-04T02:23:25.999Z,3.77
2019-02-04T02:25:31.975Z,3.77
2019-02-04T02:27:39.234Z,4.73
2019-02-04T02:29:45.195Z,3.37
2019-02-04T02:31:51.655Z,4.10
2019-02-04T02:33:57.606Z,4.67
2019-02-04T02:36:03.559Z,4.37
2019-02-04T02:38:09.635Z,4.10
2019-02-04T02:40:28.484Z,4.07
2019-02-04T02:42:34.522Z,3.80
2019-02-04T02:44:40.477Z,4.43
2019-02-04T02:46:46.449Z,3.40
2019-02-04T02:48:52.402Z,5.37
2019-02-04T02:50:58.552Z,4.23
2019-02-04T02:53:04.504Z,4.00
2019-02-04T02:55:14.845Z,3.90
2019-02-04T02:57:20.801Z,3.97
2019-02-04T02:59:26.860Z,3.90
2019-02-04T03:01:32.922Z,3.73
2019-02-04T03:03:38.863Z,4.33
2019-02-04T03:05:44.833Z,4.40
2019-02-04T03:07:51.288Z,4.37
2019-02-04T03:09:57.339Z,4.20
2019-02-04T03:12:03.409Z,4.20
2019-02-04T03:14:10.072Z,3.90
2019-02-04T03:16:15.996Z,4.00
2019-02-04T03:18:21.983Z,4.00
2019-02-04T03:20:28.335Z,3.43
2019-02-04T03:22:34.708Z,3.60
2019-02-04T03:24:41.995Z,4.07
2019-02-04T03:26:47.907Z,4.63
2019-02-04T03:28:54.093Z,3.93
2019-02-04T03:31:00.475Z,3.43
2019-02-04T03:33:06.632Z,3.97
2019-02-04T03:35:16.841Z,4.00
2019-02-04T03:37:22.834Z,3.23
2019-02-04T03:39:29.084Z,3.87
2019-02-04T03:41:35.017Z,3.37
2019-02-04T03:43:40.998Z,4.10
2019-02-04T03:45:47.561Z,3.50
2019-02-04T03:48:04.339Z,3.87
2019-02-04T03:50:01.296Z,4.20
2019-02-04T03:52:08.379Z,3.73
2019-02-04T03:54:14.459Z,3.23
2019-02-04T03:56:20.709Z,3.23
2019-02-04T03:58:26.659Z,4.03
2019-02-04T04:00:35.991Z,3.03
2019-02-04T04:02:42.161Z,2.90
2019-02-04T04:04:48.193Z,3.73
2019-02-04T04:06:54.462Z,3.63
2019-02-04T04:09:00.413Z,2.30
2019-02-04T04:11:06.455Z,3.07
2019-02-04T04:13:12.417Z,3.60
2019-02-04T04:15:18.774Z,3.43
2019-02-04T04:17:24.856Z,3.70
2019-02-04T04:19:30.902Z,2.90
2019-02-04T04:21:37.166Z,3.17
2019-02-04T04:23:44.794Z,2.93
2019-02-04T04:25:50.794Z,2.57
2019-02-04T04:27:57.066Z,2.53
2019-02-04T04:30:03.017Z,3.20
2019-02-04T04:32:09.084Z,1.90
2019-02-04T04:34:19.666Z,3.17
2019-02-04T04:36:25.691Z,2.57
2019-02-04T04:38:31.752Z,3.00
2019-02-04T04:40:37.999Z,2.73
2019-02-04T04:42:44.482Z,3.03
2019-02-04T04:44:51.045Z,1.83
2019-02-04T04:46:57.306Z,3.03
2019-02-04T04:49:03.346Z,2.83
2019-02-04T04:51:11.554Z,2.50
2019-02-04T04:53:17.615Z,2.73
2019-02-04T04:55:27.588Z,2.20
2019-02-04T04:57:33.605Z,2.57
2019-02-04T04:59:39.565Z,2.40
2019-02-04T05:01:45.512Z,2.07
2019-02-04T05:03:51.595Z,3.00
2019-02-04T05:05:57.732Z,2.50
2019-02-04T05:08:04.314Z,2.80
2019-02-04T05:10:17.588Z,2.40
2019-02-04T05:12:23.599Z,1.73
2019-02-04T05:14:29.835Z,2.30
2019-02-04T05:16:35.786Z,2.73
2019-02-04T05:18:41.847Z,2.00
2019-02-04T05:20:47.904Z,1.60
2019-02-04T05:22:53.844Z,2.70
2019-02-04T05:25:00.023Z,2.57
2019-02-04T05:27:06.371Z,2.10
2019-02-04T05:29:12.961Z,2.30
2019-02-04T05:31:18.891Z,2.30
2019-02-04T05:33:24.955Z,2.00
2019-02-04T05:35:31.412Z,2.13
2019-02-04T05:37:37.588Z,1.90
2019-02-04T05:39:43.725Z,1.63
2019-02-04T05:41:49.787Z,2.77
2019-02-04T05:43:57.699Z,1.83
2019-02-04T05:46:08.900Z,2.60
2019-02-04T05:48:14.908Z,2.17
2019-02-04T05:50:21.690Z,2.20
2019-02-04T05:52:27.639Z,2.90
2019-02-04T05:54:34.213Z,2.73
2019-02-04T05:56:40.364Z,1.80
2019-02-04T05:58:46.325Z,2.50
2019-02-04T06:00:52.344Z,2.30
2019-02-04T06:02:58.304Z,2.20
2019-02-04T06:05:05.875Z,1.73
2019-02-04T06:07:12.145Z,1.93
2019-02-04T06:09:18.124Z,2.37
2019-02-04T06:11:24.373Z,2.67
2019-02-04T06:13:30.328Z,2.97
2019-02-04T06:15:36.698Z,2.90
2019-02-04T06:17:42.755Z,2.57
2019-02-04T06:19:48.800Z,2.93
2019-02-04T06:22:00.731Z,2.27
2019-02-04T06:24:10.546Z,2.00
2019-02-04T06:26:17.756Z,1.97
2019-02-04T06:28:30.687Z,2.83
2019-02-04T06:30:43.877Z,2.20
2019-02-04T06:32:54.510Z,2.20
2019-02-04T06:35:01.714Z,2.87
2019-02-04T06:37:07.656Z,2.87
2019-02-04T06:39:13.629Z,2.37
2019-02-04T06:41:19.542Z,2.43
2019-02-04T06:43:27.134Z,2.40
2019-02-04T06:45:34.654Z,2.90
2019-02-04T06:47:41.435Z,2.67
2019-02-04T06:49:47.374Z,2.87
2019-02-04T06:51:55.005Z,2.47
2019-02-04T06:54:01.317Z,2.80
2019-02-04T06:56:07.265Z,2.40
2019-02-04T06:58:13.230Z,3.00
2019-02-04T07:00:20.305Z,2.30
2019-02-04T07:02:26.488Z,2.60
2019-02-04T07:04:33.137Z,2.90
2019-02-04T07:06:39.085Z,2.37
2019-02-04T07:08:45.164Z,3.00
2019-02-04T07:10:52.734Z,3.03
2019-02-04T07:12:59.091Z,3.20
2019-02-04T07:15:05.459Z,3.13
2019-02-04T07:17:11.395Z,2.83
2019-02-04T07:19:24.235Z,3.10
2019-02-04T07:21:26.094Z,3.93
2019-02-04T07:23:32.046Z,2.93
2019-02-04T07:25:38.395Z,3.70
2019-02-04T07:27:44.375Z,4.13
2019-02-04T07:29:50.535Z,3.70
2019-02-04T07:31:56.674Z,3.20
2019-02-04T07:34:03.246Z,3.33
2019-02-04T07:36:09.296Z,3.80
2019-02-04T07:38:17.094Z,4.00
2019-02-04T07:40:34.465Z,4.77
2019-02-04T07:42:40.482Z,3.70
2019-02-04T07:44:46.414Z,2.77
2019-02-04T07:46:52.466Z,2.77
2019-02-04T07:48:58.875Z,2.53
2019-02-04T07:51:04.959Z,3.13
2019-02-04T07:53:11.152Z,3.20
2019-02-04T07:55:17.125Z,3.40
2019-02-04T07:57:24.714Z,2.43
2019-02-04T07:59:30.752Z,2.83
2019-02-04T08:01:36.722Z,2.40
2019-02-04T08:03:42.744Z,3.10
2019-02-04T08:05:50.032Z,3.10
2019-02-04T08:07:56.085Z,3.23
2019-02-04T08:10:03.165Z,3.63
2019-02-04T08:12:09.131Z,2.03
2019-02-04T08:14:15.284Z,2.73
2019-02-04T08:16:21.355Z,3.57
2019-02-04T08:18:27.311Z,4.17
2019-02-04T08:20:33.279Z,2.77
2019-02-04T08:22:39.934Z,2.93
2019-02-04T08:24:46.070Z,2.77
2019-02-04T08:26:52.227Z,2.67
2019-02-04T08:28:58.195Z,3.30
2019-02-04T08:31:04.154Z,2.60
2019-02-04T08:33:10.195Z,3.10
2019-02-04T08:35:16.481Z,2.43
2019-02-04T08:37:22.913Z,2.77
2019-02-04T08:39:28.995Z,2.97
2019-02-04T08:41:35.035Z,3.57
2019-02-04T08:43:41.273Z,3.50
2019-02-04T08:45:48.891Z,3.30
2019-02-04T08:47:56.261Z,4.57
2019-02-04T08:50:02.931Z,3.07
2019-02-04T08:52:08.899Z,3.70
2019-02-04T08:54:15.890Z,3.50
2019-02-04T08:56:22.217Z,4.10
2019-02-04T08:58:28.476Z,3.30
2019-02-04T09:00:34.534Z,3.10
2019-02-04T09:02:40.612Z,3.07
2019-02-04T09:04:46.554Z,2.57
2019-02-04T09:06:52.525Z,3.97
2019-02-04T09:08:58.665Z,3.13
2019-02-04T09:11:05.360Z,2.60
2019-02-04T09:13:11.405Z,3.23
2019-02-04T09:15:17.554Z,6.57
2019-02-04T09:17:23.696Z,3.30
2019-02-04T09:19:30.895Z,2.90
2019-02-04T09:21:36.862Z,2.90
2019-02-04T09:23:42.790Z,3.40
2019-02-04T09:25:48.745Z,2.60
2019-02-04T09:27:55.104Z,2.50
2019-02-04T09:30:01.085Z,3.00
2019-02-04T09:32:07.451Z,3.23
2019-02-04T09:34:14.299Z,2.80
2019-02-04T09:36:20.354Z,2.70
2019-02-04T09:38:27.040Z,2.67
2019-02-04T09:40:42.616Z,2.67
2019-02-04T09:42:48.684Z,2.80
2019-02-04T09:44:54.737Z,2.93
2019-02-04T09:47:01.314Z,5.37
2019-02-04T09:49:07.352Z,3.17
2019-02-04T09:51:13.519Z,3.03
2019-02-04T09:53:19.570Z,3.53
2019-02-04T09:55:30.234Z,4.33
2019-02-04T09:57:36.184Z,4.37
2019-02-04T09:59:42.532Z,3.30
2019-02-04T10:01:48.592Z,4.70
2019-02-04T10:03:55.585Z,4.13
2019-02-04T10:06:01.624Z,3.87
2019-02-04T10:08:08.500Z,5.37
2019-02-04T10:10:21.635Z,3.87
2019-02-04T10:12:29.004Z,4.03
2019-02-04T10:14:35.169Z,3.47
2019-02-04T10:16:41.127Z,3.60
2019-02-04T10:18:47.293Z,4.27
2019-02-04T10:20:53.707Z,4.07
2019-02-04T10:22:59.705Z,4.67
2019-02-04T10:25:09.323Z,5.23
2019-02-04T10:27:15.422Z,7.00
2019-02-04T10:29:21.574Z,8.77
2019-02-04T10:31:28.244Z,6.27
2019-02-04T10:33:34.382Z,4.40
2019-02-04T10:35:52.594Z,4.07
2019-02-04T10:37:58.777Z,4.57
2019-02-04T10:40:22.521Z,4.60
2019-02-04T10:42:28.610Z,3.23
2019-02-04T10:44:34.525Z,3.33
2019-02-04T10:46:42.256Z,4.10
2019-02-04T10:48:55.667Z,3.27
2019-02-04T10:51:06.798Z,3.30
2019-02-04T10:53:13.880Z,3.93
2019-02-04T10:55:20.045Z,2.70
2019-02-04T10:57:26.158Z,3.33
2019-02-04T10:59:32.108Z,3.87
2019-02-04T11:01:38.198Z,3.07
2019-02-04T11:03:45.539Z,2.80
2019-02-04T11:05:51.534Z,3.13
2019-02-04T11:08:00.244Z,3.00
2019-02-04T11:10:10.974Z,3.80
2019-02-04T11:12:18.163Z,2.43
2019-02-04T11:14:24.307Z,2.63
2019-02-04T11:16:31.294Z,2.67
2019-02-04T11:18:37.250Z,2.40
2019-02-04T11:20:43.549Z,2.70
2019-02-04T11:22:49.651Z,3.00
2019-02-04T11:24:55.821Z,2.83
2019-02-04T11:27:03.695Z,2.50
2019-02-04T11:29:09.977Z,2.47
2019-02-04T11:31:16.741Z,2.87
2019-02-04T11:33:23.611Z,3.03
2019-02-04T11:35:30.118Z,2.03
2019-02-04T11:37:36.413Z,2.40
2019-02-04T11:39:44.039Z,2.07
2019-02-04T11:41:50.313Z,2.40
2019-02-04T11:43:57.323Z,2.53
2019-02-04T11:46:03.575Z,2.60
2019-02-04T11:48:13.330Z,1.83
2019-02-04T11:50:19.235Z,2.83
2019-02-04T11:52:25.392Z,1.80
2019-02-04T11:54:31.645Z,2.63
2019-02-04T11:56:37.935Z,2.30
2019-02-04T11:58:43.861Z,2.60
2019-02-04T12:00:49.821Z,2.17
2019-02-04T12:02:57.615Z,2.17
2019-02-04T12:05:03.543Z,2.07
2019-02-04T12:07:09.735Z,2.47
2019-02-04T12:09:15.892Z,1.87
2019-02-04T12:11:21.935Z,3.43
2019-02-04T12:13:28.013Z,2.67
2019-02-04T12:15:33.948Z,2.83
2019-02-04T12:17:40.111Z,3.37
2019-02-04T12:19:46.034Z,3.30
2019-02-04T12:21:52.324Z,3.60
2019-02-04T12:23:59.916Z,3.50
2019-02-04T12:26:07.507Z,3.23
2019-02-04T12:28:13.675Z,2.63
2019-02-04T12:30:27.092Z,2.87
2019-02-04T12:32:35.897Z,5.27
2019-02-04T12:34:41.866Z,4.47
2019-02-04T12:36:48.148Z,4.70
2019-02-04T12:38:54.384Z,4.90
2019-02-04T12:41:00.320Z,3.73
2019-02-04T12:43:06.305Z,3.70
2019-02-04T12:45:26.894Z,4.87
2019-02-04T12:47:33.045Z,5.30
2019-02-04T12:49:39.115Z,8.87
2019-02-04T12:51:45.347Z,8.07
2019-02-04T12:53:52.410Z,7.87
2019-02-04T12:55:58.599Z,6.43
2019-02-04T12:58:05.476Z,7.40
2019-02-04T13:00:21.577Z,5.60
2019-02-04T13:02:27.633Z,13.27
2019-02-04T13:04:33.657Z,8.77
2019-02-04T13:06:39.736Z,29.37
2019-02-04T13:08:45.655Z,22.47
2019-02-04T13:10:51.766Z,12.27
2019-02-04T13:12:57.678Z,18.67
2019-02-04T13:15:03.736Z,16.00
2019-02-04T13:17:09.714Z,11.77
2019-02-04T13:19:15.759Z,11.80
2019-02-04T13:21:22.121Z,12.83
2019-02-04T13:23:28.169Z,8.10
2019-02-04T13:25:34.125Z,12.70
2019-02-04T13:27:41.439Z,14.23
2019-02-04T13:29:47.484Z,9.43
2019-02-04T13:31:53.728Z,10.97
2019-02-04T13:33:59.685Z,13.23
2019-02-04T13:36:06.159Z,13.80
2019-02-04T13:38:12.288Z,12.27
2019-02-04T13:40:30.010Z,9.57
2019-02-04T13:42:36.284Z,10.90
2019-02-04T13:44:42.354Z,8.47
2019-02-04T13:46:49.327Z,7.53
2019-02-04T13:48:55.595Z,8.57
2019-02-04T13:51:01.957Z,7.77
2019-02-04T13:53:08.326Z,8.83
2019-02-04T13:55:18.902Z,8.20
2019-02-04T13:57:24.936Z,11.83
2019-02-04T13:59:32.745Z,9.30
2019-02-04T14:01:39.110Z,6.67
2019-02-04T14:03:48.324Z,5.13
2019-02-04T14:05:54.595Z,5.90
2019-02-04T14:08:01.142Z,16.90
2019-02-04T14:10:20.842Z,34.37
2019-02-04T14:12:27.291Z,11.70
2019-02-04T14:14:35.282Z,20.47
2019-02-04T14:16:41.356Z,24.37
2019-02-04T14:18:47.830Z,14.20
2019-02-04T14:20:53.855Z,10.73
2019-02-04T14:22:59.924Z,10.13
2019-02-04T14:25:08.395Z,10.07
2019-02-04T14:27:14.413Z,11.67
2019-02-04T14:29:20.458Z,10.80
2019-02-04T14:31:26.717Z,12.60
2019-02-04T14:33:34.668Z,11.87
2019-02-04T14:35:40.859Z,11.17
2019-02-04T14:37:46.926Z,13.50
2019-02-04T14:39:52.968Z,14.20
2019-02-04T14:41:59.139Z,44.03
2019-02-04T14:44:10.529Z,38.37
2019-02-04T14:46:29.886Z,33.77
2019-02-04T14:49:12.498Z,23.43
2019-02-04T14:51:23.371Z,20.67
2019-02-04T14:53:52.249Z,28.77
2019-02-04T14:56:12.230Z,12.93
2019-02-04T14:58:41.009Z,11.57
2019-02-04T15:01:30.716Z,14.97
2019-02-04T15:03:53.035Z,15.47
2019-02-04T15:06:28.587Z,15.23
2019-02-04T15:09:04.801Z,14.10
2019-02-04T15:11:27.190Z,16.10
2019-02-04T15:13:59.247Z,17.07
2019-02-04T15:16:30.039Z,19.83
2019-02-04T15:19:07.679Z,33.37
2019-02-04T15:21:50.906Z,24.00
2019-02-04T15:24:14.879Z,20.70
2019-02-04T15:26:43.977Z,16.40
2019-02-04T15:28:59.943Z,19.00
2019-02-04T15:31:52.500Z,21.20
2019-02-04T15:34:09.901Z,12.90
2019-02-04T15:36:29.611Z,11.97
2019-02-04T15:38:41.788Z,11.50
2019-02-04T15:41:10.526Z,12.40
2019-02-04T15:43:27.754Z,14.00
2019-02-04T15:45:44.820Z,17.70
2019-02-04T15:47:56.098Z,26.20
2019-02-04T15:50:37.149Z,56.73
2019-02-04T15:52:45.463Z,71.10
2019-02-04T15:54:51.960Z,58.50
2019-02-04T15:56:59.609Z,26.70
2019-02-04T15:59:06.101Z,16.03
2019-02-04T16:01:12.696Z,11.27
2019-02-04T16:03:20.712Z,14.20
2019-02-04T16:05:27.281Z,11.10
2019-02-04T16:07:33.938Z,97.83
2019-02-04T16:09:42.118Z,58.50
2019-02-04T16:11:48.818Z,30.33
2019-02-04T16:13:55.391Z,13.27
2019-02-04T16:16:01.865Z,14.33
2019-02-04T16:18:09.000Z,18.70
2019-02-04T16:20:24.112Z,23.93
2019-02-04T16:22:30.467Z,29.83
2019-02-04T16:24:37.049Z,38.83
2019-02-04T16:26:44.671Z,40.47
2019-02-04T16:28:51.240Z,43.97
2019-02-04T16:30:57.911Z,39.00
2019-02-04T16:33:04.709Z,36.67
2019-02-04T16:35:18.141Z,42.83
2019-02-04T16:37:25.078Z,43.97
2019-02-04T16:39:31.571Z,33.27
2019-02-04T16:41:38.072Z,28.90
2019-02-04T16:43:44.563Z,36.47
2019-02-04T16:45:50.942Z,27.80
2019-02-04T16:47:57.853Z,109.40
2019-02-04T16:50:05.792Z,93.37
2019-02-04T16:52:12.730Z,59.13
2019-02-04T16:54:19.790Z,33.03
2019-02-04T16:56:26.103Z,48.70
2019-02-04T16:58:32.790Z,36.23
2019-02-04T17:00:39.464Z,36.57
2019-02-04T17:02:47.631Z,30.07
2019-02-04T17:04:54.354Z,22.47
2019-02-04T17:07:01.612Z,18.20
2019-02-04T17:09:09.483Z,17.47
2019-02-04T17:11:16.056Z,14.93
2019-02-04T17:13:22.641Z,15.87
2019-02-04T17:15:29.010Z,21.87
2019-02-04T17:17:35.702Z,27.23
2019-02-04T17:19:43.728Z,33.47
2019-02-04T17:21:50.505Z,28.30
2019-02-04T17:23:57.498Z,19.50
2019-02-04T17:26:03.972Z,32.57
2019-02-04T17:28:10.398Z,20.77
2019-02-04T17:30:20.328Z,21.03
2019-02-04T17:32:26.942Z,23.07
2019-02-04T17:34:34.261Z,28.33
2019-02-04T17:36:40.833Z,39.33
2019-02-04T17:38:47.393Z,34.30
2019-02-04T17:40:53.900Z,26.97
2019-02-04T17:43:00.473Z,25.07
2019-02-04T17:45:12.358Z,20.13
2019-02-04T17:47:19.060Z,18.33
2019-02-04T17:49:25.660Z,16.90
2019-02-04T17:51:32.354Z,20.47
2019-02-04T17:53:39.043Z,21.60
2019-02-04T17:55:45.350Z,20.27
2019-02-04T17:57:51.949Z,26.10
2019-02-04T17:59:58.487Z,15.07
2019-02-04T18:02:05.722Z,14.03
2019-02-04T18:04:13.895Z,12.90
2019-02-04T18:06:20.627Z,12.63
2019-02-04T18:08:27.225Z,11.13
2019-02-04T18:10:33.836Z,12.30
2019-02-04T18:12:40.445Z,10.97
2019-02-04T18:14:47.985Z,9.00
2019-02-04T18:16:56.173Z,10.67
2019-02-04T18:19:04.207Z,12.40
2019-02-04T18:21:11.224Z,12.47
2019-02-04T18:23:17.706Z,13.23
2019-02-04T18:25:24.665Z,15.80
2019-02-04T18:27:31.323Z,14.90
2019-02-04T18:29:37.958Z,14.90
2019-02-04T18:31:44.730Z,13.70
2019-02-04T18:33:51.381Z,16.07
2019-02-04T18:35:58.105Z,13.10
2019-02-04T18:38:07.012Z,13.03
2019-02-04T18:40:22.865Z,18.43
2019-02-04T18:42:29.992Z,25.90
2019-02-04T18:44:36.562Z,18.33
2019-02-04T18:46:43.062Z,19.30
2019-02-04T18:48:49.671Z,15.10
2019-02-04T18:50:56.264Z,14.97
2019-02-04T18:53:03.002Z,12.00
2019-02-04T18:55:20.627Z,11.47
2019-02-04T18:57:28.466Z,11.67
2019-02-04T18:59:34.935Z,15.10
2019-02-04T19:01:42.113Z,17.70
2019-02-04T19:03:51.674Z,18.47
2019-02-04T19:05:58.823Z,17.67
2019-02-04T19:08:05.791Z,18.43
2019-02-04T19:10:21.418Z,23.07
2019-02-04T19:12:28.170Z,20.97
2019-02-04T19:14:34.666Z,19.40
2019-02-04T19:16:41.218Z,18.83
2019-02-04T19:18:48.245Z,20.20
2019-02-04T19:20:56.551Z,24.63
2019-02-04T19:23:03.304Z,23.13
2019-02-04T19:25:13.215Z,20.07
2019-02-04T19:27:20.095Z,16.30
2019-02-04T19:29:27.285Z,17.00
2019-02-04T19:31:34.995Z,15.93
2019-02-04T19:33:42.291Z,15.83
2019-02-04T19:35:51.912Z,16.30
2019-02-04T19:37:59.551Z,18.43
2019-02-04T19:40:10.705Z,28.33
2019-02-04T19:42:17.896Z,19.60
2019-02-04T19:44:24.722Z,19.13
2019-02-04T19:46:48.062Z,17.83
2019-02-04T19:48:56.759Z,18.73
2019-02-04T19:51:03.619Z,25.37
2019-02-04T19:53:12.072Z,22.77
2019-02-04T19:55:18.646Z,26.30
2019-02-04T19:57:25.844Z,19.20
2019-02-04T19:59:32.463Z,23.13
2019-02-04T20:01:38.941Z,25.10
2019-02-04T20:03:45.540Z,34.33
2019-02-04T20:05:52.309Z,41.87
2019-02-04T20:08:05.655Z,32.57
2019-02-04T20:10:18.880Z,32.43
2019-02-04T20:12:25.422Z,34.30
2019-02-04T20:14:31.956Z,22.00
2019-02-04T20:16:39.379Z,17.90
2019-02-04T20:18:46.910Z,16.97
2019-02-04T20:20:55.362Z,19.77
2019-02-04T20:23:03.202Z,25.30
2019-02-04T20:25:14.072Z,20.87
2019-02-04T20:27:20.253Z,19.60
2019-02-04T20:29:26.939Z,53.00
2019-02-04T20:31:35.070Z,34.90
2019-02-04T20:33:44.740Z,18.87
2019-02-04T20:35:53.020Z,21.47
2019-02-04T20:37:59.681Z,22.33
2019-02-04T20:40:17.264Z,23.57
2019-02-04T20:42:24.062Z,27.53
2019-02-04T20:44:30.998Z,24.27
2019-02-04T20:46:37.626Z,26.37
2019-02-04T20:48:44.419Z,21.03
2019-02-04T20:50:51.472Z,28.90
2019-02-04T20:52:57.855Z,26.23
2019-02-04T20:55:06.363Z,23.67
2019-02-04T20:57:13.083Z,26.50
2019-02-04T20:59:19.474Z,21.17
2019-02-04T21:01:26.261Z,21.57
2019-02-04T21:03:33.322Z,20.37
2019-02-04T21:05:42.189Z,17.70
2019-02-04T21:07:50.299Z,18.43
2019-02-04T21:09:56.683Z,17.10
2019-02-04T21:12:03.082Z,16.67
2019-02-04T21:14:10.001Z,23.60
2019-02-04T21:16:16.828Z,19.90
2019-02-04T21:18:23.313Z,19.37
2019-02-04T21:20:31.480Z,21.20
2019-02-04T21:22:37.872Z,30.67
2019-02-04T21:24:44.253Z,24.27
2019-02-04T21:26:50.842Z,23.83
2019-02-04T21:28:57.503Z,20.33
2019-02-04T21:31:03.893Z,20.47
2019-02-04T21:33:10.591Z,24.17
2019-02-04T21:35:24.750Z,17.33
2019-02-04T21:40:27.860Z,23.10
2019-02-04T21:42:34.337Z,21.70
2019-02-04T21:44:41.271Z,20.87
2019-02-04T21:46:49.058Z,21.47
2019-02-04T21:48:56.740Z,19.67
2019-02-04T21:51:05.700Z,19.40
2019-02-04T21:53:14.142Z,27.87
2019-02-04T21:55:22.494Z,22.60
2019-02-04T21:57:30.123Z,28.70
2019-02-04T21:59:36.832Z,63.90
2019-02-04T22:01:43.362Z,41.10
2019-02-04T22:03:49.631Z,35.73
2019-02-04T22:05:55.910Z,42.17
2019-02-04T22:08:02.513Z,54.90
2019-02-04T22:10:25.854Z,22.03
2019-02-04T22:12:32.243Z,29.10
2019-02-04T22:17:36.949Z,34.50
2019-02-04T22:19:43.570Z,29.67
2019-02-04T22:21:50.003Z,31.50
2019-02-04T22:23:56.258Z,42.33
2019-02-04T22:26:02.631Z,26.73
2019-02-04T22:28:08.871Z,23.97
2019-02-04T22:30:31.553Z,23.80
2019-02-04T22:32:39.743Z,25.60
2019-02-04T22:34:46.199Z,22.53
2019-02-04T22:36:52.371Z,25.37
2019-02-04T22:38:59.776Z,20.40
2019-02-04T22:41:07.527Z,20.47
2019-02-04T22:43:13.607Z,20.17
2019-02-04T22:45:20.141Z,18.17
2019-02-04T22:47:27.333Z,19.77
2019-02-04T22:49:33.393Z,16.53
2019-02-04T22:51:39.433Z,20.93
2019-02-04T22:53:45.912Z,16.67
2019-02-04T22:55:52.071Z,12.60
2019-02-04T22:57:58.119Z,15.53
2019-02-04T23:00:07.691Z,13.13
2019-02-04T23:02:14.042Z,12.30
2019-02-04T23:04:20.106Z,11.50
2019-02-04T23:06:26.326Z,13.90
2019-02-04T23:08:32.422Z,12.53
2019-02-04T23:10:39.723Z,11.87
2019-02-04T23:12:46.077Z,14.27
2019-02-04T23:14:52.113Z,11.73
2019-02-04T23:16:58.148Z,12.97
2019-02-04T23:19:04.192Z,16.80
2019-02-04T23:21:11.212Z,11.97
2019-02-04T23:23:18.140Z,15.13
2019-02-04T23:25:24.210Z,15.53
2019-02-04T23:27:30.284Z,16.53
2019-02-04T23:29:36.443Z,14.53
2019-02-04T23:31:43.406Z,19.43
2019-02-04T23:33:50.181Z,18.50
2019-02-04T23:35:56.242Z,16.70
2019-02-04T23:38:03.755Z,13.73
2019-02-04T23:40:12.634Z,13.37
2019-02-04T23:42:19.317Z,12.00
2019-02-04T23:44:26.075Z,11.13
2019-02-04T23:46:33.034Z,11.30
2019-02-04T23:48:40.989Z,10.70
2019-02-04T23:50:47.811Z,12.57
2019-02-04T23:52:54.693Z,11.10
2019-02-04T23:55:02.984Z,14.73
2019-02-04T23:57:09.954Z,16.00
2019-02-04T23:59:16.881Z,14.67
